Terminal Aerodrome Forecast
Issued by NWS Sioux Falls, SD

Home | Current Version | Previous Version | Text Only | Print | Product List | Glossary On
Versions: 1 2 3 4 5 6 7 8 9 10 11 12 13 14 15 16 17 18 19 20
000
FTUS43 KFSD 262045 AAB
TAFFSD
TAF AMD
KFSD 262045Z 2621/2718 35014KT P6SM OVC015
     FM262300 34012KT P6SM SCT025 SCT100
     FM270000 34007KT P6SM SKC
     FM270600 VRB04KT P6SM SCT120=

USA.gov is the U.S. government's official web portal to all federal, state and local government web resources and services.